createdAt,value
2019-02-06T00:00:26.256Z,99.99
2019-02-06T00:01:14.965Z,99.99
2019-02-06T00:02:14.963Z,99.99
2019-02-06T00:03:14.969Z,99.99
2019-02-06T00:04:15.622Z,99.99
2019-02-06T00:05:15.524Z,99.99
2019-02-06T00:06:14.969Z,99.99
2019-02-06T00:07:14.975Z,99.99
2019-02-06T00:08:15.036Z,99.99
2019-02-06T00:09:14.992Z,99.99
2019-02-06T00:10:15.037Z,99.99
2019-02-06T00:11:14.981Z,99.99
2019-02-06T00:12:14.982Z,99.99
2019-02-06T00:13:14.989Z,99.99
2019-02-06T00:14:15.001Z,99.99
2019-02-06T00:15:14.988Z,99.99
2019-02-06T00:16:15.017Z,99.99
2019-02-06T00:17:15.028Z,99.99
2019-02-06T00:18:14.996Z,99.99
2019-02-06T00:19:15.026Z,99.99
2019-02-06T00:20:15.028Z,99.99
2019-02-06T00:21:14.999Z,99.99
2019-02-06T00:22:15.009Z,99.99
2019-02-06T00:23:14.999Z,99.99
2019-02-06T00:24:15.009Z,99.99
2019-02-06T00:25:15.006Z,99.99
2019-02-06T00:26:15.012Z,99.99
2019-02-06T00:27:15.007Z,99.99
2019-02-06T00:28:15.001Z,99.99
2019-02-06T00:29:15.018Z,99.99
2019-02-06T00:30:15.012Z,99.99
2019-02-06T00:31:15.042Z,99.99
2019-02-06T00:32:15.015Z,99.99
2019-02-06T00:33:15.020Z,99.99
2019-02-06T00:34:15.016Z,99.99
2019-02-06T00:35:25.473Z,99.99
2019-02-06T00:36:15.020Z,99.99
2019-02-06T00:37:15.023Z,99.99
2019-02-06T00:38:15.022Z,99.99
2019-02-06T00:39:15.030Z,99.99
2019-02-06T00:40:15.032Z,99.99
2019-02-06T00:41:15.042Z,99.99
2019-02-06T00:42:15.033Z,99.99
2019-02-06T00:43:15.034Z,99.99
2019-02-06T00:44:15.033Z,99.99
2019-02-06T00:45:15.035Z,99.99
2019-02-06T00:46:15.047Z,99.99
2019-02-06T00:47:15.046Z,99.99
2019-02-06T00:48:15.044Z,99.99
2019-02-06T00:49:15.060Z,99.99
2019-02-06T00:50:15.043Z,99.99
2019-02-06T00:51:15.047Z,99.99
2019-02-06T00:52:15.058Z,99.99
2019-02-06T00:53:15.058Z,99.99
2019-02-06T00:54:15.060Z,99.99
2019-02-06T00:55:15.060Z,99.99
2019-02-06T00:56:15.059Z,99.99
2019-02-06T00:57:15.062Z,99.99
2019-02-06T00:58:15.058Z,99.99
2019-02-06T00:59:15.064Z,99.99
2019-02-06T01:00:15.720Z,99.99
2019-02-06T01:01:15.060Z,99.99
2019-02-06T01:02:15.071Z,99.99
2019-02-06T01:03:15.159Z,99.99
2019-02-06T01:04:15.068Z,99.99
2019-02-06T01:05:15.072Z,99.99
2019-02-06T01:06:15.079Z,99.99
2019-02-06T01:07:15.070Z,99.99
2019-02-06T01:08:15.077Z,99.99
2019-02-06T01:09:15.092Z,99.99
2019-02-06T01:10:15.071Z,99.99
2019-02-06T01:11:15.081Z,99.99
2019-02-06T01:12:15.077Z,99.99
2019-02-06T01:13:15.088Z,99.99
2019-02-06T01:14:15.086Z,99.99
2019-02-06T01:15:15.086Z,99.99
2019-02-06T01:16:15.083Z,99.99
2019-02-06T01:17:15.089Z,99.99
2019-02-06T01:18:15.084Z,99.99
2019-02-06T01:19:15.087Z,99.99
2019-02-06T01:20:15.116Z,99.99
2019-02-06T01:21:15.084Z,99.99
2019-02-06T01:22:15.094Z,99.99
2019-02-06T01:23:16.376Z,99.99
2019-02-06T01:24:15.107Z,99.99
2019-02-06T01:25:15.094Z,99.99
2019-02-06T01:26:15.094Z,99.99
2019-02-06T01:27:15.098Z,99.99
2019-02-06T01:28:15.100Z,99.99
2019-02-06T01:29:15.103Z,99.99
2019-02-06T01:30:15.101Z,99.99
2019-02-06T01:31:15.103Z,99.99
2019-02-06T01:32:15.121Z,99.99
2019-02-06T01:33:15.110Z,99.99
2019-02-06T01:34:15.106Z,99.99
2019-02-06T01:35:15.113Z,99.99
2019-02-06T01:36:15.113Z,99.99
2019-02-06T01:37:15.119Z,99.99
2019-02-06T01:38:15.118Z,99.99
2019-02-06T01:39:15.119Z,99.99
2019-02-06T01:40:15.118Z,99.99
2019-02-06T01:41:15.119Z,99.99
2019-02-06T01:42:15.123Z,99.99
2019-02-06T02:58:18.743Z,99.99
2019-02-06T02:59:18.718Z,99.99
2019-02-06T03:01:11.819Z,99.99
2019-02-06T03:02:11.799Z,99.99
2019-02-06T03:04:05.414Z,99.99
2019-02-06T03:05:05.394Z,99.99
2019-02-06T03:06:05.410Z,99.99
2019-02-06T03:07:05.395Z,99.99
2019-02-06T03:08:05.396Z,99.99
2019-02-06T03:09:05.401Z,99.99
2019-02-06T03:10:05.406Z,99.99
2019-02-06T03:11:05.404Z,99.99
2019-02-06T03:12:05.405Z,99.99
2019-02-06T03:13:05.408Z,99.99
2019-02-06T03:14:05.409Z,99.99
2019-02-06T03:15:05.407Z,99.99
2019-02-06T03:16:05.415Z,99.99
2019-02-06T03:17:05.411Z,99.99
2019-02-06T03:18:05.524Z,99.99
2019-02-06T03:19:05.416Z,99.99
2019-02-06T03:20:05.415Z,99.99
2019-02-06T03:21:05.417Z,99.99
2019-02-06T03:22:05.420Z,99.99
2019-02-06T03:23:05.419Z,99.99
2019-02-06T03:24:05.526Z,99.99
2019-02-06T03:25:05.419Z,99.99
2019-02-06T03:26:05.433Z,99.99
2019-02-06T03:27:05.431Z,99.99
2019-02-06T03:28:05.432Z,99.99
2019-02-06T03:29:05.430Z,99.99
2019-02-06T03:30:05.477Z,99.99
2019-02-06T03:31:05.444Z,99.99
2019-02-06T03:32:05.442Z,99.99
2019-02-06T03:33:05.437Z,99.99
2019-02-06T03:34:05.439Z,99.99
2019-02-06T03:35:05.448Z,99.99
2019-02-06T03:36:05.441Z,99.99
2019-02-06T03:37:05.440Z,99.99
2019-02-06T03:38:05.441Z,99.99
2019-02-06T03:39:05.449Z,99.99
2019-02-06T03:40:05.451Z,99.99
2019-02-06T03:41:05.449Z,99.99
2019-02-06T03:42:05.449Z,99.99
2019-02-06T03:43:05.451Z,99.99
2019-02-06T03:44:05.498Z,99.99
2019-02-06T03:45:05.448Z,99.99
2019-02-06T03:46:05.463Z,99.99
2019-02-06T03:47:05.460Z,99.99
2019-02-06T03:48:05.558Z,99.99
2019-02-06T03:49:05.461Z,99.99
2019-02-06T03:50:05.463Z,99.99
2019-02-06T03:51:05.466Z,99.99
2019-02-06T03:52:05.465Z,99.99
2019-02-06T03:53:05.467Z,99.99
2019-02-06T03:54:05.459Z,99.99
2019-02-06T03:55:05.464Z,99.99
2019-02-06T03:56:05.468Z,99.99
2019-02-06T03:57:05.471Z,99.99
2019-02-06T03:58:05.470Z,99.99
2019-02-06T03:59:05.477Z,99.99
2019-02-06T04:00:05.475Z,99.99
2019-02-06T04:01:05.473Z,99.99
2019-02-06T04:02:05.478Z,99.99
2019-02-06T04:03:05.480Z,99.99
2019-02-06T04:04:05.479Z,99.99
2019-02-06T04:05:05.478Z,99.99
2019-02-06T04:06:05.491Z,99.99
2019-02-06T04:07:05.503Z,99.99
2019-02-06T04:08:05.489Z,99.99
2019-02-06T04:09:05.515Z,99.99
2019-02-06T04:10:05.489Z,99.99
2019-02-06T04:11:05.493Z,99.99
2019-02-06T04:12:05.495Z,99.99
2019-02-06T04:13:05.495Z,99.99
2019-02-06T04:14:05.494Z,99.99
2019-02-06T04:15:05.499Z,99.99
2019-02-06T04:16:05.497Z,99.99
2019-02-06T04:17:05.501Z,99.99
2019-02-06T04:18:05.499Z,99.99
2019-02-06T04:19:05.643Z,99.99
2019-02-06T04:20:05.519Z,99.99
2019-02-06T04:21:05.593Z,99.99
2019-02-06T04:22:05.511Z,99.99
2019-02-06T04:23:05.509Z,99.99
2019-02-06T04:24:05.516Z,99.99
2019-02-06T04:25:05.512Z,99.99
2019-02-06T04:26:05.519Z,99.99
2019-02-06T04:27:05.520Z,99.99
2019-02-06T04:28:05.516Z,99.99
2019-02-06T04:29:05.514Z,99.99
2019-02-06T04:30:05.518Z,99.99
2019-02-06T04:31:05.522Z,99.99
2019-02-06T04:32:05.525Z,99.99
2019-02-06T04:33:05.696Z,99.99
2019-02-06T04:34:05.526Z,99.99
2019-02-06T04:35:05.527Z,99.99
2019-02-06T04:36:05.533Z,99.99
2019-02-06T04:37:06.892Z,99.99
2019-02-06T04:38:05.532Z,99.99
2019-02-06T04:39:05.533Z,99.99
2019-02-06T04:40:05.540Z,99.99
2019-02-06T04:41:05.539Z,99.99
2019-02-06T04:42:05.540Z,99.99
2019-02-06T04:43:05.540Z,99.99
2019-02-06T04:44:05.537Z,99.99
2019-02-06T04:45:05.546Z,99.99
2019-02-06T04:46:05.540Z,99.99
2019-02-06T04:47:05.546Z,99.99
2019-02-06T04:48:05.545Z,99.99
2019-02-06T04:49:05.569Z,99.99
2019-02-06T04:50:05.550Z,99.99
2019-02-06T04:51:05.551Z,99.99
2019-02-06T04:52:05.550Z,99.99
2019-02-06T04:53:05.550Z,99.99
2019-02-06T04:54:05.555Z,99.99
2019-02-06T04:55:05.564Z,99.99
2019-02-06T04:56:06.182Z,99.99
2019-02-06T04:57:05.557Z,99.99
2019-02-06T04:58:05.557Z,99.99
2019-02-06T04:59:05.576Z,99.99
2019-02-06T05:00:05.561Z,99.99
2019-02-06T05:01:05.584Z,99.99
2019-02-06T05:02:05.565Z,99.99
2019-02-06T05:03:05.564Z,99.99
2019-02-06T05:04:05.635Z,99.99
2019-02-06T05:05:05.622Z,99.99
2019-02-06T05:06:05.781Z,99.99
2019-02-06T05:07:05.573Z,99.99
2019-02-06T05:08:05.751Z,99.99
2019-02-06T05:09:05.711Z,99.99
2019-02-06T05:10:05.729Z,99.99
2019-02-06T05:11:05.572Z,99.99
2019-02-06T05:12:05.584Z,99.99
2019-02-06T05:13:05.574Z,99.99
2019-02-06T05:14:05.579Z,99.99
2019-02-06T05:15:05.585Z,99.99
2019-02-06T05:16:05.582Z,99.99
2019-02-06T05:17:05.587Z,99.99
2019-02-06T05:18:05.589Z,99.99
2019-02-06T05:19:05.600Z,99.99
2019-02-06T05:20:05.591Z,99.99
2019-02-06T05:21:05.599Z,99.99
2019-02-06T05:22:05.601Z,99.99
2019-02-06T05:23:05.591Z,99.99
2019-02-06T05:24:05.602Z,99.99
2019-02-06T05:25:05.602Z,99.99
2019-02-06T05:26:05.594Z,99.99
2019-02-06T05:27:05.597Z,99.99
2019-02-06T05:28:05.597Z,99.99
2019-02-06T05:29:05.601Z,99.99
2019-02-06T05:30:05.602Z,99.99
2019-02-06T05:31:05.606Z,99.99
2019-02-06T05:32:05.608Z,99.99
2019-02-06T05:33:05.605Z,99.99
2019-02-06T05:34:05.605Z,99.99
2019-02-06T05:35:05.608Z,99.99
2019-02-06T05:36:05.615Z,99.99
2019-02-06T05:37:05.622Z,99.99
2019-02-06T05:38:05.612Z,99.99
2019-02-06T05:39:05.607Z,99.99
2019-02-06T05:40:05.618Z,99.99
2019-02-06T05:41:05.705Z,99.99
2019-02-06T05:42:05.614Z,99.99
2019-02-06T05:43:05.625Z,99.99
2019-02-06T05:44:05.623Z,99.99
2019-02-06T05:45:05.620Z,99.99
2019-02-06T05:46:05.630Z,99.99
2019-02-06T05:47:05.622Z,99.99
2019-02-06T05:48:05.619Z,99.99
2019-02-06T05:49:05.614Z,99.99
2019-02-06T05:50:05.626Z,99.99
2019-02-06T05:51:05.630Z,99.99
2019-02-06T05:52:05.633Z,99.99
2019-02-06T05:53:05.636Z,99.99
2019-02-06T05:54:05.635Z,99.99
2019-02-06T05:55:05.626Z,99.99
2019-02-06T05:56:05.634Z,99.99
2019-02-06T05:57:05.637Z,99.99
2019-02-06T05:58:05.641Z,99.99
2019-02-06T05:59:05.667Z,99.99
2019-02-06T06:00:05.638Z,99.99
2019-02-06T06:01:05.659Z,99.99
2019-02-06T06:02:05.646Z,99.99
2019-02-06T06:03:05.647Z,99.99
2019-02-06T06:04:05.636Z,99.99
2019-02-06T06:05:05.642Z,99.99
2019-02-06T06:06:05.638Z,99.99
2019-02-06T06:07:05.650Z,99.99
2019-02-06T06:08:05.648Z,99.99
2019-02-06T06:09:05.651Z,99.99
2019-02-06T06:10:05.654Z,99.99
2019-02-06T06:11:05.662Z,99.99
2019-02-06T06:12:05.664Z,99.99
2019-02-06T06:13:05.654Z,99.99
2019-02-06T06:14:05.665Z,99.99
2019-02-06T06:15:05.662Z,99.99
2019-02-06T06:16:05.677Z,99.99
2019-02-06T06:17:05.660Z,99.99
2019-02-06T06:18:05.683Z,99.99
2019-02-06T06:19:05.665Z,99.99
2019-02-06T06:20:05.667Z,99.99
2019-02-06T06:21:05.663Z,99.99
2019-02-06T06:22:05.659Z,99.99
2019-02-06T06:23:05.667Z,99.99
2019-02-06T06:24:08.945Z,99.99
2019-02-06T06:25:05.679Z,99.99
2019-02-06T06:26:05.671Z,99.99
2019-02-06T06:27:05.675Z,99.99
2019-02-06T06:28:05.676Z,99.99
2019-02-06T06:29:05.686Z,99.99
2019-02-06T06:30:05.678Z,99.99
2019-02-06T06:31:05.679Z,99.99
2019-02-06T06:32:05.683Z,99.99
2019-02-06T06:33:05.682Z,99.99
2019-02-06T06:34:05.683Z,99.99
2019-02-06T06:35:05.786Z,99.99
2019-02-06T06:36:05.695Z,99.99
2019-02-06T06:37:05.688Z,99.99
2019-02-06T06:38:05.694Z,99.99
2019-02-06T06:39:05.714Z,99.99
2019-02-06T06:40:05.691Z,99.99
2019-02-06T06:41:05.690Z,99.99
2019-02-06T06:42:05.689Z,99.99
2019-02-06T06:43:05.691Z,99.99
2019-02-06T06:44:05.692Z,99.99
2019-02-06T06:45:05.694Z,99.99
2019-02-06T06:46:05.694Z,99.99
2019-02-06T06:47:05.705Z,99.99
2019-02-06T06:48:05.703Z,99.99
2019-02-06T06:49:05.710Z,99.99
2019-02-06T06:50:05.705Z,99.99
2019-02-06T06:51:05.736Z,99.99
2019-02-06T06:52:05.705Z,99.99
2019-02-06T06:53:05.716Z,99.99
2019-02-06T06:54:05.722Z,99.99
2019-02-06T06:55:05.720Z,99.99
2019-02-06T06:56:05.714Z,99.99
2019-02-06T06:57:05.711Z,99.99
2019-02-06T06:58:05.716Z,99.99
2019-02-06T06:59:05.844Z,99.99
2019-02-06T07:00:05.727Z,99.99
2019-02-06T07:01:05.715Z,99.99
2019-02-06T07:02:05.711Z,99.99
2019-02-06T07:03:05.726Z,99.99
2019-02-06T07:04:05.722Z,99.99
2019-02-06T07:05:05.851Z,99.99
2019-02-06T07:06:05.726Z,99.99
2019-02-06T07:07:05.726Z,99.99
2019-02-06T07:08:09.643Z,99.99
2019-02-06T07:09:05.726Z,99.99
2019-02-06T07:10:05.737Z,99.99
2019-02-06T07:11:05.735Z,99.99
2019-02-06T07:12:05.740Z,99.99
2019-02-06T07:13:05.746Z,99.99
2019-02-06T07:14:05.735Z,99.99
2019-02-06T07:15:05.740Z,99.99
2019-02-06T07:16:05.733Z,99.99
2019-02-06T07:17:05.734Z,99.99
2019-02-06T07:18:05.736Z,99.99
2019-02-06T07:19:05.740Z,99.99
2019-02-06T07:20:05.735Z,99.99
2019-02-06T07:21:05.744Z,99.99
2019-02-06T07:22:05.750Z,99.99
2019-02-06T07:23:05.752Z,99.99
2019-02-06T07:24:05.750Z,99.99
2019-02-06T07:25:05.758Z,99.99
2019-02-06T07:26:05.753Z,99.99
2019-02-06T07:27:05.757Z,99.99
2019-02-06T07:28:05.757Z,99.99
2019-02-06T07:29:05.759Z,99.99
2019-02-06T07:30:05.761Z,99.99
2019-02-06T07:31:05.766Z,99.99
2019-02-06T07:32:05.763Z,99.99
2019-02-06T07:33:05.763Z,99.99
2019-02-06T07:34:05.762Z,99.99
2019-02-06T07:35:05.758Z,99.99
2019-02-06T07:36:05.770Z,99.99
2019-02-06T07:37:05.768Z,99.99
2019-02-06T07:38:05.766Z,99.99
2019-02-06T07:39:05.772Z,99.99
2019-02-06T07:40:05.780Z,99.99
2019-02-06T07:41:05.781Z,99.99
2019-02-06T07:42:05.794Z,99.99
2019-02-06T07:43:05.775Z,99.99
2019-02-06T07:44:05.777Z,99.99
2019-02-06T07:45:05.784Z,99.99
2019-02-06T07:46:05.784Z,99.99
2019-02-06T07:47:05.787Z,99.99
2019-02-06T07:48:05.792Z,99.99
2019-02-06T07:49:05.796Z,99.99
2019-02-06T07:50:05.784Z,99.99
2019-02-06T07:51:05.790Z,99.99
2019-02-06T07:52:05.793Z,99.99
2019-02-06T07:53:05.800Z,99.99
2019-02-06T07:54:05.795Z,99.99
2019-02-06T07:55:05.800Z,99.99
2019-02-06T07:56:05.804Z,99.99
2019-02-06T07:57:05.815Z,99.99
2019-02-06T07:58:05.828Z,99.99
2019-02-06T07:59:05.813Z,99.99
2019-02-06T08:00:05.807Z,99.99
2019-02-06T08:01:05.815Z,99.99
2019-02-06T08:02:05.820Z,99.99
2019-02-06T08:03:05.813Z,99.99
2019-02-06T08:04:05.816Z,99.99
2019-02-06T08:05:05.817Z,99.99
2019-02-06T08:06:05.826Z,99.99
2019-02-06T08:07:05.825Z,99.99
2019-02-06T08:08:05.828Z,99.99
2019-02-06T08:09:05.835Z,99.99
2019-02-06T08:10:05.830Z,99.99
2019-02-06T08:11:05.837Z,99.99
2019-02-06T08:12:05.838Z,99.99
2019-02-06T08:13:05.840Z,99.99
2019-02-06T08:14:05.841Z,99.99
2019-02-06T08:15:05.851Z,99.99
2019-02-06T08:16:07.410Z,99.99
2019-02-06T08:17:05.851Z,99.99
2019-02-06T08:18:05.851Z,99.99
2019-02-06T08:19:05.853Z,99.99
2019-02-06T08:20:05.855Z,99.99
2019-02-06T08:21:05.857Z,99.99
2019-02-06T08:22:05.860Z,99.99
2019-02-06T08:23:05.868Z,99.99
2019-02-06T08:24:05.869Z,99.99
2019-02-06T08:25:05.866Z,99.99
2019-02-06T08:26:05.875Z,99.99
2019-02-06T08:27:05.874Z,99.99
2019-02-06T08:28:05.872Z,99.99
2019-02-06T08:29:05.882Z,99.99
2019-02-06T08:30:05.884Z,99.99
2019-02-06T08:31:05.881Z,99.99
2019-02-06T08:32:05.885Z,99.99
2019-02-06T08:33:05.889Z,99.99
2019-02-06T08:34:05.895Z,99.99
2019-02-06T08:35:05.889Z,99.99
2019-02-06T08:36:05.894Z,99.99
2019-02-06T08:37:05.902Z,99.99
2019-02-06T08:38:05.902Z,99.99
2019-02-06T08:39:05.897Z,99.99
2019-02-06T08:40:05.905Z,99.99
2019-02-06T08:41:05.907Z,99.99
2019-02-06T08:42:05.910Z,99.99
2019-02-06T08:43:05.913Z,99.99
2019-02-06T08:44:05.920Z,99.99
2019-02-06T08:45:05.919Z,99.99
2019-02-06T08:46:05.915Z,99.99
2019-02-06T08:47:05.943Z,99.99
2019-02-06T08:48:05.932Z,99.99
2019-02-06T08:49:05.925Z,99.99
2019-02-06T08:50:05.930Z,99.99
2019-02-06T08:51:05.936Z,99.99
2019-02-06T08:52:05.935Z,99.99
2019-02-06T08:53:05.953Z,99.99
2019-02-06T08:54:05.948Z,99.99
2019-02-06T08:55:05.946Z,99.99
2019-02-06T08:56:05.950Z,99.99
2019-02-06T08:57:05.955Z,99.99
2019-02-06T08:58:05.954Z,99.99
2019-02-06T08:59:05.959Z,99.99
2019-02-06T09:00:05.978Z,99.99
2019-02-06T09:01:05.961Z,99.99
2019-02-06T09:02:05.960Z,99.99
2019-02-06T09:03:05.969Z,99.99
2019-02-06T09:04:05.972Z,99.99
2019-02-06T09:05:07.679Z,99.99
2019-02-06T09:06:05.994Z,99.82
2019-02-06T09:07:05.978Z,99.35
2019-02-06T09:08:05.987Z,99.91
2019-02-06T09:09:05.994Z,99.06
2019-02-06T09:10:05.998Z,99.49
2019-02-06T09:11:06.006Z,99.40
2019-02-06T09:12:05.997Z,99.58
2019-02-06T09:13:06.000Z,99.68
2019-02-06T09:14:06.122Z,98.54
2019-02-06T09:15:06.012Z,98.83
2019-02-06T09:16:06.026Z,98.73
2019-02-06T09:17:06.016Z,98.07
2019-02-06T09:18:06.021Z,98.64
2019-02-06T09:19:06.022Z,98.30
2019-02-06T09:20:06.031Z,98.45
2019-02-06T09:21:06.032Z,98.64
2019-02-06T09:22:06.034Z,98.49
2019-02-06T09:23:06.047Z,98.54
2019-02-06T09:24:06.042Z,98.16
2019-02-06T09:25:06.048Z,97.97
2019-02-06T09:26:06.054Z,97.50
2019-02-06T09:27:06.061Z,97.97
2019-02-06T09:28:06.058Z,97.97
2019-02-06T09:29:06.064Z,97.31
2019-02-06T09:30:06.067Z,97.22
2019-02-06T09:31:06.075Z,97.31
2019-02-06T09:32:06.077Z,97.31
2019-02-06T09:33:06.092Z,96.74
2019-02-06T09:34:06.090Z,97.69
2019-02-06T09:35:06.090Z,97.60
2019-02-06T09:36:06.097Z,97.78
2019-02-06T09:37:06.108Z,96.83
2019-02-06T09:38:06.103Z,97.41
2019-02-06T09:39:11.720Z,97.02
2019-02-06T09:40:06.117Z,96.55
2019-02-06T09:41:06.124Z,96.08
2019-02-06T09:42:06.124Z,96.17
2019-02-06T09:43:06.128Z,95.89
2019-02-06T09:44:06.145Z,94.89
2019-02-06T09:45:06.144Z,95.55
2019-02-06T09:46:06.144Z,94.98
2019-02-06T09:47:06.148Z,94.23
2019-02-06T09:48:06.156Z,94.42
2019-02-06T09:49:06.161Z,94.51
2019-02-06T09:50:06.179Z,94.65
2019-02-06T09:51:06.179Z,94.74
2019-02-06T09:52:06.179Z,95.03
2019-02-06T09:53:06.184Z,95.51
2019-02-06T09:54:06.189Z,95.60
2019-02-06T09:55:06.195Z,94.93
2019-02-06T09:56:06.197Z,95.51
2019-02-06T09:57:06.207Z,95.60
2019-02-06T09:58:06.207Z,95.31
2019-02-06T09:59:06.216Z,95.22
2019-02-06T10:00:06.217Z,95.03
2019-02-06T10:01:06.223Z,94.84
2019-02-06T10:02:06.229Z,95.60
2019-02-06T10:03:06.243Z,95.51
2019-02-06T10:04:06.241Z,95.70
2019-02-06T10:05:06.243Z,94.56
2019-02-06T10:06:06.243Z,95.60
2019-02-06T10:07:06.253Z,95.03
2019-02-06T10:08:06.256Z,94.84
2019-02-06T10:09:06.254Z,94.93
2019-02-06T10:10:06.268Z,94.37
2019-02-06T10:11:06.269Z,94.08
2019-02-06T10:12:06.271Z,94.46
2019-02-06T10:13:06.437Z,94.74
2019-02-06T10:14:06.293Z,94.56
2019-02-06T10:15:06.291Z,94.27
2019-02-06T10:16:06.295Z,94.37
2019-02-06T10:17:06.305Z,94.56
2019-02-06T10:18:06.305Z,95.03
2019-02-06T10:19:06.302Z,94.56
2019-02-06T10:20:06.304Z,94.84
2019-02-06T10:21:06.308Z,95.03
2019-02-06T10:22:06.316Z,95.31
2019-02-06T10:23:06.319Z,95.41
2019-02-06T10:24:06.323Z,94.74
2019-02-06T10:25:06.333Z,94.37
2019-02-06T10:26:06.330Z,95.03
2019-02-06T10:27:06.337Z,95.12
2019-02-06T10:28:06.345Z,95.12
2019-02-06T10:29:06.338Z,95.03
2019-02-06T10:30:06.345Z,95.12
2019-02-06T10:31:06.356Z,94.27
2019-02-06T10:32:06.352Z,94.08
2019-02-06T10:33:06.361Z,94.65
2019-02-06T10:34:06.358Z,94.93
2019-02-06T10:35:06.359Z,94.56
2019-02-06T10:36:06.365Z,94.37
2019-02-06T10:37:06.373Z,94.51
2019-02-06T10:38:06.374Z,94.13
2019-02-06T10:39:06.379Z,93.84
2019-02-06T10:40:06.388Z,93.84
2019-02-06T10:41:06.384Z,93.37
2019-02-06T10:42:06.393Z,93.94
2019-02-06T10:43:06.400Z,93.56
2019-02-06T10:44:06.395Z,93.18
2019-02-06T10:45:06.397Z,92.61
2019-02-06T10:46:06.410Z,93.18
2019-02-06T10:47:06.403Z,93.37
2019-02-06T10:48:06.408Z,93.27
2019-02-06T10:49:06.414Z,93.08
2019-02-06T10:50:06.421Z,92.99
2019-02-06T10:51:06.427Z,92.42
2019-02-06T10:52:06.459Z,92.04
2019-02-06T10:53:06.433Z,92.42
2019-02-06T10:54:06.435Z,92.23
2019-02-06T10:55:06.438Z,92.13
2019-02-06T10:56:06.447Z,92.23
2019-02-06T10:57:06.574Z,91.75
2019-02-06T10:58:06.454Z,92.04
2019-02-06T10:59:06.452Z,91.94
2019-02-06T11:00:06.459Z,91.56
2019-02-06T11:01:06.471Z,91.38
2019-02-06T11:02:06.470Z,91.38
2019-02-06T11:03:06.484Z,91.56
2019-02-06T11:04:06.486Z,91.28
2019-02-06T11:05:06.482Z,90.71
2019-02-06T11:06:06.486Z,91.47
2019-02-06T11:07:08.232Z,91.28
2019-02-06T11:08:06.493Z,91.28
2019-02-06T11:09:06.517Z,91.38
2019-02-06T11:10:06.509Z,91.56
2019-02-06T11:11:06.502Z,91.28
2019-02-06T11:12:06.511Z,91.85
2019-02-06T11:13:06.525Z,91.66
2019-02-06T11:14:06.521Z,90.90
2019-02-06T11:15:06.519Z,91.47
2019-02-06T11:16:06.530Z,90.71
2019-02-06T11:17:06.535Z,90.80
2019-02-06T11:18:06.531Z,90.80
2019-02-06T11:19:06.535Z,91.13
2019-02-06T11:20:06.539Z,90.66
2019-02-06T11:21:06.542Z,90.47
2019-02-06T11:22:06.549Z,90.85
2019-02-06T11:23:06.556Z,90.19
2019-02-06T11:24:06.571Z,90.37
2019-02-06T11:25:06.571Z,90.75
2019-02-06T11:26:06.567Z,90.00
2019-02-06T11:27:06.572Z,90.09
2019-02-06T11:28:06.576Z,90.19
2019-02-06T11:29:06.581Z,90.19
2019-02-06T11:30:06.586Z,90.28
2019-02-06T11:31:06.584Z,90.37
2019-02-06T11:32:06.596Z,90.37
2019-02-06T11:33:06.590Z,89.71
2019-02-06T11:34:06.592Z,89.23
2019-02-06T11:35:06.605Z,89.14
2019-02-06T11:36:06.609Z,89.42
2019-02-06T11:37:06.612Z,89.33
2019-02-06T11:38:06.615Z,88.67
2019-02-06T11:39:06.617Z,89.23
2019-02-06T11:40:06.625Z,89.04
2019-02-06T11:41:06.631Z,89.04
2019-02-06T11:42:06.627Z,88.85
2019-02-06T11:43:06.649Z,89.04
2019-02-06T11:44:06.647Z,88.95
2019-02-06T11:45:06.647Z,88.76
2019-02-06T11:46:09.046Z,88.57
2019-02-06T11:47:06.657Z,88.47
2019-02-06T11:48:06.665Z,87.81
2019-02-06T11:49:06.668Z,88.47
2019-02-06T11:50:06.682Z,88.19
2019-02-06T11:51:06.671Z,88.09
2019-02-06T11:52:06.681Z,88.57
2019-02-06T11:53:06.686Z,88.28
2019-02-06T11:54:06.703Z,88.47
2019-02-06T11:55:08.659Z,88.52
2019-02-06T11:56:06.702Z,88.04
2019-02-06T11:57:06.707Z,88.04
2019-02-06T11:58:06.713Z,88.13
2019-02-06T11:59:06.709Z,88.13
2019-02-06T12:00:06.718Z,88.13
2019-02-06T12:01:06.724Z,88.13
2019-02-06T12:02:06.725Z,87.85
2019-02-06T12:03:06.736Z,87.85
2019-02-06T12:04:06.739Z,87.85
2019-02-06T12:05:06.744Z,87.76
2019-02-06T12:06:06.747Z,88.13
2019-02-06T12:07:06.752Z,88.04
2019-02-06T12:08:06.756Z,87.95
2019-02-06T12:09:06.762Z,88.13
2019-02-06T12:10:09.784Z,88.23
2019-02-06T12:11:06.770Z,88.23
2019-02-06T12:12:06.775Z,88.52
2019-02-06T12:13:06.777Z,87.85
2019-02-06T12:14:06.784Z,87.95
2019-02-06T12:15:06.791Z,88.61
2019-02-06T12:16:06.808Z,88.42
2019-02-06T12:17:06.810Z,89.00
2019-02-06T12:18:06.812Z,88.61
2019-02-06T12:19:06.806Z,88.42
2019-02-06T12:20:06.818Z,88.42
2019-02-06T12:21:06.816Z,88.33
2019-02-06T12:22:06.831Z,88.42
2019-02-06T12:23:06.844Z,88.33
2019-02-06T12:24:06.827Z,88.61
2019-02-06T12:25:06.839Z,88.42
2019-02-06T12:26:06.954Z,88.52
2019-02-06T12:27:06.860Z,88.61
2019-02-06T12:28:06.847Z,88.52
2019-02-06T12:29:06.859Z,88.52
2019-02-06T12:30:06.861Z,88.52
2019-02-06T12:31:06.910Z,89.37
2019-02-06T12:32:06.872Z,88.71
2019-02-06T12:33:06.873Z,88.80
2019-02-06T12:34:06.881Z,89.28
2019-02-06T12:35:06.905Z,89.00
2019-02-06T12:36:06.893Z,88.94
2019-02-06T12:37:06.893Z,88.80
2019-02-06T12:38:06.909Z,89.00
2019-02-06T12:39:06.908Z,89.00
2019-02-06T12:40:06.915Z,89.66
2019-02-06T12:41:06.913Z,90.47
2019-02-06T12:42:06.919Z,90.18
2019-02-06T12:43:06.921Z,90.56
2019-02-06T12:44:06.928Z,91.42
2019-02-06T12:45:06.937Z,91.70
2019-02-06T12:46:06.959Z,91.99
2019-02-06T12:47:06.945Z,92.08
2019-02-06T12:48:06.949Z,90.84
2019-02-06T12:49:06.965Z,91.13
2019-02-06T12:50:06.959Z,91.70
2019-02-06T12:51:06.972Z,91.70
2019-02-06T12:52:06.970Z,91.42
2019-02-06T12:53:06.976Z,91.32
2019-02-06T12:54:06.990Z,91.61
2019-02-06T12:55:06.985Z,91.70
2019-02-06T12:56:06.991Z,90.56
2019-02-06T12:57:06.996Z,90.66
2019-02-06T12:58:07.002Z,90.94
2019-02-06T12:59:07.010Z,91.13
2019-02-06T13:00:07.039Z,90.84
2019-02-06T13:01:07.038Z,91.61
2019-02-06T13:02:07.020Z,91.51
2019-02-06T13:03:07.025Z,91.03
2019-02-06T13:04:07.029Z,90.84
2019-02-06T13:05:07.034Z,91.32
2019-02-06T13:06:07.039Z,91.42
2019-02-06T13:07:07.047Z,91.61
2019-02-06T13:08:07.055Z,91.42
2019-02-06T13:09:07.059Z,91.70
2019-02-06T13:10:07.067Z,91.51
2019-02-06T13:11:07.070Z,91.51
2019-02-06T13:12:07.084Z,91.32
2019-02-06T13:13:07.076Z,91.32
2019-02-06T13:14:07.079Z,91.99
2019-02-06T13:15:07.087Z,91.89
2019-02-06T13:16:07.081Z,91.80
2019-02-06T13:17:07.097Z,92.08
2019-02-06T13:18:07.111Z,91.89
2019-02-06T13:19:07.106Z,91.89
2019-02-06T13:20:07.113Z,92.51
2019-02-06T13:21:07.117Z,92.94
2019-02-06T13:22:07.126Z,92.84
2019-02-06T13:23:07.127Z,93.32
2019-02-06T13:24:07.138Z,93.13
2019-02-06T13:25:07.139Z,93.70
2019-02-06T13:26:07.150Z,94.08
2019-02-06T13:27:07.148Z,94.27
2019-02-06T13:28:07.152Z,94.84
2019-02-06T13:29:07.168Z,95.03
2019-02-06T13:30:07.159Z,94.46
2019-02-06T13:31:07.186Z,95.03
2019-02-06T13:32:07.166Z,95.70
2019-02-06T13:33:07.183Z,95.56
2019-02-06T13:34:07.190Z,94.93
2019-02-06T13:35:07.193Z,94.65
2019-02-06T13:36:07.196Z,94.37
2019-02-06T13:37:07.195Z,95.08
2019-02-06T13:38:07.208Z,95.03
2019-02-06T13:39:07.210Z,94.93
2019-02-06T13:40:07.218Z,95.89
2019-02-06T13:41:07.217Z,96.46
2019-02-06T13:42:07.240Z,96.36
2019-02-06T13:43:07.235Z,96.36
2019-02-06T13:44:07.234Z,96.60
2019-02-06T13:45:07.242Z,96.22
2019-02-06T13:46:07.246Z,97.60
2019-02-06T13:47:07.257Z,98.17
2019-02-06T13:48:07.255Z,98.93
2019-02-06T13:49:07.254Z,99.22
2019-02-06T13:50:07.273Z,99.22
2019-02-06T13:51:15.862Z,99.88
2019-02-06T13:52:07.273Z,99.60
2019-02-06T13:53:07.279Z,99.41
2019-02-06T13:54:07.283Z,99.79
2019-02-06T13:55:07.294Z,99.69
2019-02-06T13:56:07.293Z,99.99
2019-02-06T13:57:07.303Z,99.31
2019-02-06T13:58:07.324Z,99.22
2019-02-06T13:59:07.500Z,99.41
2019-02-06T14:00:07.325Z,99.60
2019-02-06T14:01:07.322Z,99.69
2019-02-06T14:02:07.398Z,99.74
2019-02-06T14:03:07.332Z,99.65
2019-02-06T14:04:07.348Z,98.98
2019-02-06T14:05:07.343Z,98.60
2019-02-06T14:06:07.363Z,98.79
2019-02-06T14:07:07.353Z,98.69
2019-02-06T14:08:07.373Z,98.41
2019-02-06T14:09:07.367Z,98.50